Time;durP1;ratioP1;P1;durP2;ratioP2;P2;SDS_P1;SDS_P2;PMS_P1;PMS_P2;Temp;Humidity;BMP_temperature;BMP_pressure;BME280_temperature;BME280_humidity;BME280_pressure;Samples;Min_cycle;Max_cycle;Signal;HPM_P1;HPM_P2
2023/12/29 00:00:09;;;;;;;;;;;9.40;87.40;;;;;;5108278;28;19932;-63
2023/12/29 00:02:43;;;;;;;;;;;9.40;87.40;;;;;;5104839;28;19927;-62
2023/12/29 00:05:16;;;;;;;;;;;9.40;87.40;;;;;;5108491;28;19924;-63
2023/12/29 00:07:49;;;;;;;;;;;9.40;87.40;;;;;;5106265;28;20006;-63
2023/12/29 00:10:16;;;;;;;;;;;9.40;87.30;;;;;;5107403;28;19973;-63
2023/12/29 00:12:50;;;;;;;;;;;9.40;87.30;;;;;;5108817;28;19931;-62
2023/12/29 00:15:24;;;;;;;;;;;9.40;87.30;;;;;;5108067;28;19934;-64
2023/12/29 00:17:57;;;;;;;;;;;9.40;87.30;;;;;;5106356;28;19928;-63
2023/12/29 00:20:30;;;;;;;;;;;9.40;87.30;;;;;;5106776;28;19924;-64
2023/12/29 00:23:03;;;;;;;;;;;9.40;87.30;;;;;;5106751;28;19923;-63
2023/12/29 00:25:36;;;;;;;;;;;9.40;87.30;;;;;;5089653;28;19935;-63
2023/12/29 00:28:10;;;;;;;;;;;9.40;87.30;;;;;;5087033;28;19931;-63
2023/12/29 00:30:39;;;;;;;;;;;9.40;87.30;;;;;;5086595;28;19924;-64
2023/12/29 00:33:12;;;;;;;;;;;9.30;87.40;;;;;;5085881;28;20333;-71
2023/12/29 00:35:45;;;;;;;;;;;9.30;87.30;;;;;;5086399;28;19924;-71
2023/12/29 00:38:18;;;;;;;;;;;9.40;87.30;;;;;;5088287;28;19925;-71
2023/12/29 00:40:51;;;;;;;;;;;9.30;87.30;;;;;;5087076;28;19977;-70
2023/12/29 00:43:25;;;;;;;;;;;9.30;87.30;;;;;;5107725;28;19924;-70
2023/12/29 00:46:01;;;;;;;;;;;9.30;87.20;;;;;;5107404;28;20379;-70
2023/12/29 00:48:34;;;;;;;;;;;9.30;87.30;;;;;;5105765;27;19923;-70
2023/12/29 00:51:08;;;;;;;;;;;9.30;87.20;;;;;;5068719;28;19928;-71
2023/12/29 00:53:35;;;;;;;;;;;9.30;87.20;;;;;;5067837;28;19935;-71
2023/12/29 00:56:10;;;;;;;;;;;9.30;87.20;;;;;;5091118;28;19980;-70
2023/12/29 00:58:44;;;;;;;;;;;9.20;87.20;;;;;;5105864;28;19970;-71
2023/12/29 01:01:20;;;;;;;;;;;9.20;87.00;;;;;;5085732;28;19933;-72
2023/12/29 01:03:54;;;;;;;;;;;9.20;87.00;;;;;;5087274;27;19935;-71
2023/12/29 01:06:27;;;;;;;;;;;9.20;86.90;;;;;;5089172;28;19959;-70
2023/12/29 01:09:00;;;;;;;;;;;9.20;87.00;;;;;;5094926;28;19973;-71
2023/12/29 01:11:33;;;;;;;;;;;9.10;86.80;;;;;;5086447;28;19924;-72
2023/12/29 01:14:08;;;;;;;;;;;9.10;86.80;;;;;;5110913;27;19974;-71
2023/12/29 01:16:42;;;;;;;;;;;9.10;86.60;;;;;;5084150;27;19932;-71
2023/12/29 01:19:16;;;;;;;;;;;9.00;86.50;;;;;;5072025;28;19928;-71
2023/12/29 01:21:49;;;;;;;;;;;9.10;86.30;;;;;;5109187;28;19924;-70
2023/12/29 01:24:22;;;;;;;;;;;9.00;86.10;;;;;;5089961;28;19930;-71
2023/12/29 01:26:56;;;;;;;;;;;9.00;86.20;;;;;;5108446;27;19924;-70
2023/12/29 01:29:31;;;;;;;;;;;9.00;86.20;;;;;;5111644;28;20068;-72
2023/12/29 01:32:07;;;;;;;;;;;9.00;86.20;;;;;;5091519;28;20042;-71
2023/12/29 01:34:41;;;;;;;;;;;8.90;86.10;;;;;;5093658;28;19932;-71
2023/12/29 01:37:14;;;;;;;;;;;8.90;86.20;;;;;;5084734;28;19928;-71
2023/12/29 01:39:47;;;;;;;;;;;8.90;86.20;;;;;;5087375;28;19928;-70
2023/12/29 01:42:20;;;;;;;;;;;8.90;86.10;;;;;;5088638;28;19928;-62
2023/12/29 01:44:55;;;;;;;;;;;8.90;86.10;;;;;;5088909;28;19924;-62
2023/12/29 01:47:28;;;;;;;;;;;8.80;86.20;;;;;;5089676;28;19933;-63
2023/12/29 01:50:01;;;;;;;;;;;8.90;86.10;;;;;;5092893;28;20007;-63
2023/12/29 01:52:34;;;;;;;;;;;8.90;86.30;;;;;;5110743;28;20477;-62
2023/12/29 01:55:10;;;;;;;;;;;8.90;86.20;;;;;;5109167;28;20401;-62
2023/12/29 01:57:43;;;;;;;;;;;8.90;86.30;;;;;;5109557;28;19938;-63
2023/12/29 02:00:18;;;;;;;;;;;8.90;86.20;;;;;;5086639;28;19939;-63
2023/12/29 02:02:52;;;;;;;;;;;8.80;86.30;;;;;;5101440;28;19985;-63
2023/12/29 02:05:26;;;;;;;;;;;8.90;86.40;;;;;;5091736;28;19928;-61
2023/12/29 02:08:01;;;;;;;;;;;8.80;86.30;;;;;;5090346;28;19935;-62
2023/12/29 02:10:34;;;;;;;;;;;8.90;86.30;;;;;;5107967;28;19951;-63
2023/12/29 02:13:07;;;;;;;;;;;8.90;86.20;;;;;;5093097;28;20378;-62
2023/12/29 02:15:42;;;;;;;;;;;8.90;86.20;;;;;;5108530;28;20397;-62
2023/12/29 02:18:16;;;;;;;;;;;8.90;86.00;;;;;;5109334;28;19931;-62
2023/12/29 02:20:50;;;;;;;;;;;8.90;85.90;;;;;;5088445;28;19928;-61
2023/12/29 02:23:23;;;;;;;;;;;9.00;85.90;;;;;;5109154;27;19924;-61
2023/12/29 02:26:02;;;;;;;;;;;9.00;85.90;;;;;;5109798;28;20366;-61
2023/12/29 02:28:39;;;;;;;;;;;9.00;85.90;;;;;;5110248;28;19924;-62
2023/12/29 02:31:15;;;;;;;;;;;9.00;85.90;;;;;;5084914;28;19934;-61
2023/12/29 02:33:50;;;;;;;;;;;9.00;85.80;;;;;;5108178;28;20413;-61
2023/12/29 02:36:24;;;;;;;;;;;9.00;85.80;;;;;;5111239;28;19924;-62
2023/12/29 02:38:57;;;;;;;;;;;9.00;85.80;;;;;;5109465;28;19924;-61
2023/12/29 02:41:32;;;;;;;;;;;9.00;85.70;;;;;;5108886;28;19928;-60
2023/12/29 02:44:05;;;;;;;;;;;9.00;85.70;;;;;;5102094;28;19924;-61
2023/12/29 02:46:38;;;;;;;;;;;9.00;85.70;;;;;;5090189;28;19928;-61
2023/12/29 02:49:12;;;;;;;;;;;9.00;85.60;;;;;;5091671;28;20010;-62
2023/12/29 02:51:49;;;;;;;;;;;9.00;85.60;;;;;;5105931;28;19931;-61
2023/12/29 02:54:22;;;;;;;;;;;9.00;85.30;;;;;;5100844;28;19924;-58
2023/12/29 02:56:57;;;;;;;;;;;9.10;85.30;;;;;;5076235;28;19928;-58
2023/12/29 02:59:30;;;;;;;;;;;9.10;85.20;;;;;;5101389;28;19932;-59
2023/12/29 03:02:03;;;;;;;;;;;9.00;85.10;;;;;;5108812;28;19973;-59
2023/12/29 03:04:36;;;;;;;;;;;9.10;85.10;;;;;;5107719;28;20034;-57
2023/12/29 03:07:10;;;;;;;;;;;9.10;85.10;;;;;;5109561;28;20034;-59
2023/12/29 03:09:43;;;;;;;;;;;9.10;84.90;;;;;;5107577;28;20386;-60
2023/12/29 03:12:17;;;;;;;;;;;9.10;84.80;;;;;;5109488;28;20299;-56
2023/12/29 03:14:51;;;;;;;;;;;9.10;84.80;;;;;;5107065;28;19959;-60
2023/12/29 03:17:24;;;;;;;;;;;9.00;84.70;;;;;;5107711;28;19934;-59
2023/12/29 03:19:57;;;;;;;;;;;9.10;84.70;;;;;;5108868;28;20361;-60
2023/12/29 03:22:30;;;;;;;;;;;9.10;84.60;;;;;;5108626;28;20336;-59
2023/12/29 03:25:03;;;;;;;;;;;9.10;84.60;;;;;;5106713;28;19981;-59
2023/12/29 03:27:37;;;;;;;;;;;9.00;84.50;;;;;;5105813;28;19989;-59
2023/12/29 03:30:17;;;;;;;;;;;9.00;84.50;;;;;;5092466;28;19924;-60
2023/12/29 03:32:50;;;;;;;;;;;9.00;84.40;;;;;;5108125;28;20386;-58
2023/12/29 03:35:23;;;;;;;;;;;9.00;84.30;;;;;;5106118;28;19956;-60
2023/12/29 03:37:56;;;;;;;;;;;9.00;84.40;;;;;;5088153;28;19931;-59
2023/12/29 03:40:29;;;;;;;;;;;9.00;84.40;;;;;;5086988;28;20026;-61
2023/12/29 03:43:04;;;;;;;;;;;9.00;84.40;;;;;;5086543;28;19931;-59
2023/12/29 03:45:37;;;;;;;;;;;9.10;84.50;;;;;;5086972;28;20240;-61
2023/12/29 03:48:10;;;;;;;;;;;9.10;84.40;;;;;;5084641;28;20349;-60
2023/12/29 03:50:43;;;;;;;;;;;9.10;84.40;;;;;;5088340;28;19958;-61
2023/12/29 03:53:16;;;;;;;;;;;9.10;84.40;;;;;;5088561;28;19924;-59
2023/12/29 03:55:49;;;;;;;;;;;9.10;84.40;;;;;;5086880;28;19939;-59
2023/12/29 03:58:24;;;;;;;;;;;9.10;84.50;;;;;;5089170;28;19930;-60
2023/12/29 04:00:57;;;;;;;;;;;9.10;84.50;;;;;;5087256;28;19951;-58
2023/12/29 04:03:37;;;;;;;;;;;9.10;84.60;;;;;;5088103;28;19929;-69
2023/12/29 04:06:10;;;;;;;;;;;9.00;84.60;;;;;;5085730;28;19924;-68
2023/12/29 04:08:44;;;;;;;;;;;9.10;84.60;;;;;;5088163;27;19992;-69
2023/12/29 04:11:17;;;;;;;;;;;9.00;84.60;;;;;;5087175;28;19928;-71
2023/12/29 04:13:52;;;;;;;;;;;9.00;84.60;;;;;;5087819;28;19932;-70
2023/12/29 04:16:25;;;;;;;;;;;9.00;84.60;;;;;;5088132;28;20418;-70
2023/12/29 04:18:58;;;;;;;;;;;9.00;84.70;;;;;;5087357;28;20374;-70
2023/12/29 04:21:31;;;;;;;;;;;8.90;84.60;;;;;;5088096;28;20371;-70
2023/12/29 04:24:05;;;;;;;;;;;8.90;84.60;;;;;;5086856;28;20291;-71
2023/12/29 04:26:38;;;;;;;;;;;8.90;84.50;;;;;;5087472;28;20434;-71
2023/12/29 04:29:14;;;;;;;;;;;8.90;84.60;;;;;;5086490;28;19932;-72
2023/12/29 04:31:47;;;;;;;;;;;8.90;84.60;;;;;;5087082;28;20383;-71
2023/12/29 04:34:20;;;;;;;;;;;8.80;84.50;;;;;;5086992;28;19924;-70
2023/12/29 04:36:54;;;;;;;;;;;8.80;84.50;;;;;;5087703;28;19928;-71
2023/12/29 04:39:27;;;;;;;;;;;8.70;84.40;;;;;;5087679;28;20325;-71
2023/12/29 04:42:00;;;;;;;;;;;8.70;84.50;;;;;;5088705;28;20006;-69
2023/12/29 04:44:35;;;;;;;;;;;8.80;84.50;;;;;;5091647;28;19924;-70
2023/12/29 04:47:08;;;;;;;;;;;8.80;84.50;;;;;;5092282;28;19928;-70
2023/12/29 04:49:42;;;;;;;;;;;8.80;84.50;;;;;;5090470;28;20397;-69
2023/12/29 04:52:15;;;;;;;;;;;8.80;84.70;;;;;;5092338;27;19935;-70
2023/12/29 04:54:48;;;;;;;;;;;8.80;84.60;;;;;;5091109;28;19960;-70
2023/12/29 04:57:21;;;;;;;;;;;8.90;84.60;;;;;;5091046;28;20383;-70
2023/12/29 05:00:02;;;;;;;;;;;8.90;84.60;;;;;;5091238;28;19990;-70
2023/12/29 05:02:42;;;;;;;;;;;8.80;84.60;;;;;;5091137;28;19977;-70
2023/12/29 05:05:15;;;;;;;;;;;8.90;84.50;;;;;;5091063;27;20340;-70
2023/12/29 05:07:48;;;;;;;;;;;8.80;84.50;;;;;;5090603;28;19967;-70
2023/12/29 05:10:21;;;;;;;;;;;8.90;84.50;;;;;;5092080;28;19931;-70
2023/12/29 05:12:54;;;;;;;;;;;8.90;84.40;;;;;;5088751;28;19924;-66
2023/12/29 05:15:29;;;;;;;;;;;8.90;84.40;;;;;;5090419;27;19924;-66
2023/12/29 05:18:02;;;;;;;;;;;8.90;84.40;;;;;;5106495;27;20328;-65
2023/12/29 05:20:35;;;;;;;;;;;8.90;84.40;;;;;;5105590;28;20333;-66
2023/12/29 05:23:08;;;;;;;;;;;8.90;84.30;;;;;;5110225;28;19928;-66
2023/12/29 05:25:41;;;;;;;;;;;8.90;84.30;;;;;;5108596;28;19935;-65
2023/12/29 05:28:14;;;;;;;;;;;8.90;84.20;;;;;;5110005;27;19930;-65
2023/12/29 05:30:49;;;;;;;;;;;8.90;84.10;;;;;;5109549;28;20367;-64
2023/12/29 05:33:22;;;;;;;;;;;8.90;84.10;;;;;;5111650;27;19928;-66
2023/12/29 05:35:55;;;;;;;;;;;8.90;84.10;;;;;;5102219;28;20389;-67
2023/12/29 05:38:28;;;;;;;;;;;8.90;84.00;;;;;;5111037;27;20370;-64
2023/12/29 05:41:03;;;;;;;;;;;8.90;84.00;;;;;;5109937;28;20401;-66
2023/12/29 05:43:36;;;;;;;;;;;8.90;84.00;;;;;;5105033;28;19924;-66
2023/12/29 05:46:12;;;;;;;;;;;8.90;84.00;;;;;;5111309;28;19930;-65
2023/12/29 05:48:47;;;;;;;;;;;8.90;83.90;;;;;;5092630;27;19928;-65
2023/12/29 05:51:20;;;;;;;;;;;8.90;84.00;;;;;;5108562;27;20433;-66
2023/12/29 05:53:53;;;;;;;;;;;8.90;84.10;;;;;;5110264;28;19924;-65
2023/12/29 05:56:26;;;;;;;;;;;8.80;84.00;;;;;;5110788;28;19932;-65
2023/12/29 05:58:59;;;;;;;;;;;8.90;84.10;;;;;;5089112;28;19989;-65
2023/12/29 06:01:34;;;;;;;;;;;8.80;84.20;;;;;;5106633;28;19934;-67
2023/12/29 06:04:07;;;;;;;;;;;8.80;84.10;;;;;;5093869;28;20335;-66
2023/12/29 06:06:42;;;;;;;;;;;8.80;84.10;;;;;;5110930;28;19934;-66
2023/12/29 06:09:15;;;;;;;;;;;8.80;84.10;;;;;;5110837;28;20371;-66
2023/12/29 06:11:48;;;;;;;;;;;8.80;84.00;;;;;;5109014;27;20002;-66
2023/12/29 06:14:21;;;;;;;;;;;8.70;84.00;;;;;;5110467;28;19923;-65
2023/12/29 06:16:56;;;;;;;;;;;8.80;84.00;;;;;;5107097;28;19924;-66
2023/12/29 06:19:32;;;;;;;;;;;8.80;83.90;;;;;;5106366;28;20009;-65
2023/12/29 06:22:05;;;;;;;;;;;8.70;83.80;;;;;;5110220;27;19935;-65
2023/12/29 06:24:38;;;;;;;;;;;8.70;83.80;;;;;;5109211;28;19973;-58
2023/12/29 06:27:12;;;;;;;;;;;8.70;83.90;;;;;;5106811;28;19931;-60
2023/12/29 06:29:45;;;;;;;;;;;8.70;83.90;;;;;;5109168;28;19934;-60
2023/12/29 06:32:20;;;;;;;;;;;8.70;83.90;;;;;;5108006;28;19927;-60
2023/12/29 06:34:53;;;;;;;;;;;8.70;83.80;;;;;;5109973;28;19928;-59
2023/12/29 06:37:26;;;;;;;;;;;8.70;83.90;;;;;;5089054;28;19935;-58
2023/12/29 06:39:59;;;;;;;;;;;8.70;83.90;;;;;;5089072;28;19985;-59
2023/12/29 06:42:32;;;;;;;;;;;8.70;84.00;;;;;;5110397;28;19931;-59
2023/12/29 06:45:07;;;;;;;;;;;8.80;83.80;;;;;;5101254;28;19930;-59
2023/12/29 06:47:42;;;;;;;;;;;8.80;83.80;;;;;;5092122;28;19928;-59
2023/12/29 06:50:15;;;;;;;;;;;8.80;83.80;;;;;;5091354;28;19934;-59
2023/12/29 06:52:48;;;;;;;;;;;8.80;83.80;;;;;;5091371;28;19973;-59
2023/12/29 06:55:21;;;;;;;;;;;8.80;83.70;;;;;;5090254;28;19931;-60
2023/12/29 06:57:54;;;;;;;;;;;8.80;83.70;;;;;;5092560;28;19924;-59
2023/12/29 07:00:29;;;;;;;;;;;8.90;83.70;;;;;;5091796;28;19946;-59
2023/12/29 07:03:04;;;;;;;;;;;8.90;83.80;;;;;;5090491;28;19928;-58
2023/12/29 07:05:37;;;;;;;;;;;9.00;83.70;;;;;;5091515;28;19928;-59
2023/12/29 07:08:04;;;;;;;;;;;9.00;83.70;;;;;;5091887;27;19954;-59
2023/12/29 07:10:37;;;;;;;;;;;9.00;83.80;;;;;;5091663;27;19928;-58
2023/12/29 07:13:10;;;;;;;;;;;9.00;83.80;;;;;;5091669;27;20354;-58
2023/12/29 07:15:43;;;;;;;;;;;9.00;83.70;;;;;;5108694;28;19931;-60
2023/12/29 07:18:18;;;;;;;;;;;9.00;83.80;;;;;;5108134;28;19934;-59
2023/12/29 07:20:58;;;;;;;;;;;9.00;83.90;;;;;;5086742;28;20279;-58
2023/12/29 07:23:31;;;;;;;;;;;9.00;83.80;;;;;;5087816;28;19981;-60
2023/12/29 07:26:05;;;;;;;;;;;9.00;83.90;;;;;;5087354;28;20382;-60
2023/12/29 07:28:38;;;;;;;;;;;9.00;83.90;;;;;;5087898;28;20019;-59
2023/12/29 07:31:12;;;;;;;;;;;9.00;83.90;;;;;;5088121;28;19925;-59
2023/12/29 07:33:47;;;;;;;;;;;9.00;83.90;;;;;;5105615;28;19931;-64
2023/12/29 07:36:27;;;;;;;;;;;9.10;83.80;;;;;;5085664;28;19997;-58
2023/12/29 07:39:00;;;;;;;;;;;9.10;83.90;;;;;;5106903;28;19932;-59
2023/12/29 07:41:34;;;;;;;;;;;9.00;83.80;;;;;;5108409;28;20457;-60
2023/12/29 07:44:07;;;;;;;;;;;9.10;83.80;;;;;;5107762;28;20386;-59
2023/12/29 07:46:41;;;;;;;;;;;9.10;83.90;;;;;;5087052;28;20375;-59
2023/12/29 07:49:16;;;;;;;;;;;9.10;83.90;;;;;;5086441;28;19930;-59
2023/12/29 07:51:49;;;;;;;;;;;9.10;83.90;;;;;;5088210;28;19935;-60
2023/12/29 07:54:22;;;;;;;;;;;9.10;83.90;;;;;;5088108;28;19973;-59
2023/12/29 07:56:55;;;;;;;;;;;9.10;84.00;;;;;;5086514;28;20294;-58
2023/12/29 07:59:28;;;;;;;;;;;9.20;84.00;;;;;;5087677;28;20395;-60
2023/12/29 08:02:01;;;;;;;;;;;9.10;84.00;;;;;;5087476;28;20404;-58
2023/12/29 08:04:36;;;;;;;;;;;9.20;84.10;;;;;;5087636;28;19986;-59
2023/12/29 08:07:09;;;;;;;;;;;9.10;84.10;;;;;;5088154;28;19935;-60
2023/12/29 08:09:42;;;;;;;;;;;9.20;84.00;;;;;;5087295;28;19924;-60
2023/12/29 08:12:15;;;;;;;;;;;9.20;83.90;;;;;;5108243;27;20006;-59
2023/12/29 08:14:48;;;;;;;;;;;9.30;84.00;;;;;;5107192;28;20018;-59
2023/12/29 08:17:28;;;;;;;;;;;9.30;84.00;;;;;;5108595;28;19966;-59
2023/12/29 08:20:03;;;;;;;;;;;9.20;84.00;;;;;;5105610;28;19981;-59
2023/12/29 08:22:37;;;;;;;;;;;9.30;84.10;;;;;;5104269;28;19932;-58
2023/12/29 08:25:11;;;;;;;;;;;9.30;84.00;;;;;;5088825;28;19934;-58
2023/12/29 08:27:43;;;;;;;;;;;9.30;84.00;;;;;;5085854;28;19956;-59
2023/12/29 08:30:16;;;;;;;;;;;9.40;83.90;;;;;;5105190;28;19959;-60
2023/12/29 08:32:49;;;;;;;;;;;9.40;83.90;;;;;;5107410;28;20363;-60
2023/12/29 08:35:24;;;;;;;;;;;9.40;83.90;;;;;;5107651;28;20370;-59
2023/12/29 08:37:57;;;;;;;;;;;9.50;83.80;;;;;;5105840;28;19943;-60
2023/12/29 08:40:30;;;;;;;;;;;9.50;83.80;;;;;;5106762;28;19928;-59
2023/12/29 08:43:03;;;;;;;;;;;9.60;83.50;;;;;;5104858;28;20840;-64
2023/12/29 08:45:38;;;;;;;;;;;9.60;83.50;;;;;;5087287;28;20263;-64
2023/12/29 08:48:11;;;;;;;;;;;9.70;83.30;;;;;;5084625;28;19932;-65
2023/12/29 08:50:46;;;;;;;;;;;9.70;83.30;;;;;;5083885;28;19928;-66
2023/12/29 08:53:19;;;;;;;;;;;9.70;83.10;;;;;;5086689;28;19924;-66
2023/12/29 08:55:52;;;;;;;;;;;9.80;83.10;;;;;;5088979;28;19969;-66
2023/12/29 08:58:25;;;;;;;;;;;9.70;82.90;;;;;;5087021;27;19930;-65
2023/12/29 09:00:58;;;;;;;;;;;9.80;82.80;;;;;;5087260;28;20272;-66
2023/12/29 09:03:31;;;;;;;;;;;9.80;82.80;;;;;;5088375;28;19931;-66
2023/12/29 09:06:08;;;;;;;;;;;9.80;82.80;;;;;;5087410;28;20022;-66
2023/12/29 09:08:41;;;;;;;;;;;9.80;82.60;;;;;;5108376;28;19931;-66
2023/12/29 09:11:14;;;;;;;;;;;9.90;82.60;;;;;;5104635;28;19928;-66
2023/12/29 09:13:47;;;;;;;;;;;9.80;82.60;;;;;;5107517;28;19971;-66
2023/12/29 09:16:20;;;;;;;;;;;9.90;82.60;;;;;;5107360;28;19931;-66
2023/12/29 09:18:53;;;;;;;;;;;9.90;82.40;;;;;;5106184;28;20393;-65
2023/12/29 09:21:28;;;;;;;;;;;9.90;82.40;;;;;;5107277;27;19928;-67
2023/12/29 09:24:00;;;;;;;;;;;9.90;82.20;;;;;;5106267;27;20302;-65
2023/12/29 09:26:33;;;;;;;;;;;9.90;82.10;;;;;;5099780;28;20022;-65
2023/12/29 09:29:06;;;;;;;;;;;9.90;82.00;;;;;;5105338;28;19928;-65
2023/12/29 09:31:46;;;;;;;;;;;10.00;81.70;;;;;;5112447;28;19934;-64
2023/12/29 09:34:19;;;;;;;;;;;10.00;81.80;;;;;;5110069;28;19963;-66
2023/12/29 09:36:54;;;;;;;;;;;10.00;81.50;;;;;;5111564;28;19935;-66
2023/12/29 09:39:28;;;;;;;;;;;10.00;81.50;;;;;;5107788;27;19931;-67
2023/12/29 09:42:02;;;;;;;;;;;10.10;81.30;;;;;;5097528;27;19936;-66
2023/12/29 09:44:37;;;;;;;;;;;10.10;81.20;;;;;;5088439;28;19963;-66
2023/12/29 09:47:12;;;;;;;;;;;10.10;81.10;;;;;;5091982;28;19932;-66
2023/12/29 09:49:46;;;;;;;;;;;10.10;81.20;;;;;;5101225;27;19950;-66
2023/12/29 09:52:20;;;;;;;;;;;10.10;81.30;;;;;;5096060;28;19924;-66
2023/12/29 09:54:54;;;;;;;;;;;10.10;81.30;;;;;;5089636;28;19928;-61
2023/12/29 09:57:28;;;;;;;;;;;10.10;81.20;;;;;;5106718;28;19962;-63
2023/12/29 10:00:02;;;;;;;;;;;10.10;81.30;;;;;;5108858;27;22994;-61
2023/12/29 10:02:38;;;;;;;;;;;10.10;81.20;;;;;;5109648;28;19953;-61
2023/12/29 10:05:12;;;;;;;;;;;10.20;81.00;;;;;;5110096;27;19924;-62
2023/12/29 10:07:46;;;;;;;;;;;10.20;80.90;;;;;;5111191;28;19923;-62
2023/12/29 10:10:23;;;;;;;;;;;10.20;80.80;;;;;;5108072;27;19981;-61
2023/12/29 10:12:55;;;;;;;;;;;10.20;80.70;;;;;;5107972;28;19932;-62
2023/12/29 10:15:34;;;;;;;;;;;10.20;80.70;;;;;;5099506;27;20022;-62
2023/12/29 10:18:09;;;;;;;;;;;10.30;80.60;;;;;;5106217;27;19942;-63
2023/12/29 10:20:46;;;;;;;;;;;10.40;80.70;;;;;;5095180;28;19924;-62
2023/12/29 10:23:23;;;;;;;;;;;10.40;80.40;;;;;;5108601;28;19931;-62
2023/12/29 10:25:57;;;;;;;;;;;10.40;80.50;;;;;;5108321;28;19938;-63
2023/12/29 10:28:30;;;;;;;;;;;10.40;80.40;;;;;;5091494;28;20024;-62
2023/12/29 10:31:03;;;;;;;;;;;10.50;80.20;;;;;;5091369;28;20005;-61
2023/12/29 10:33:35;;;;;;;;;;;10.50;80.30;;;;;;5092533;28;19924;-62
2023/12/29 10:36:10;;;;;;;;;;;10.50;80.20;;;;;;5091369;27;19924;-60
2023/12/29 10:38:44;;;;;;;;;;;10.60;80.20;;;;;;5092278;27;19989;-61
2023/12/29 10:41:18;;;;;;;;;;;10.60;80.10;;;;;;5089585;28;20006;-60
2023/12/29 10:43:54;;;;;;;;;;;10.60;80.00;;;;;;5089192;28;20411;-62
2023/12/29 10:46:27;;;;;;;;;;;10.60;79.90;;;;;;5088638;28;19935;-61
2023/12/29 10:49:07;;;;;;;;;;;10.60;79.90;;;;;;5088677;28;19928;-61
2023/12/29 10:51:41;;;;;;;;;;;10.60;80.00;;;;;;5088143;28;20382;-60
2023/12/29 10:54:22;;;;;;;;;;;10.60;80.00;;;;;;5088805;28;19930;-62
2023/12/29 10:57:02;;;;;;;;;;;10.60;80.20;;;;;;5088734;28;19928;-62
2023/12/29 10:59:35;;;;;;;;;;;10.60;80.30;;;;;;5089401;28;20010;-61
2023/12/29 11:02:14;;;;;;;;;;;10.50;80.30;;;;;;5089220;28;20263;-61
2023/12/29 11:04:47;;;;;;;;;;;10.60;80.40;;;;;;5089504;28;19928;-59
2023/12/29 11:07:31;;;;;;;;;;;10.60;80.40;;;;;;5088481;28;20374;-60
2023/12/29 11:10:07;;;;;;;;;;;10.60;80.30;;;;;;5088679;28;19954;-60
2023/12/29 11:12:34;;;;;;;;;;;10.60;80.40;;;;;;5090142;28;19928;-60
2023/12/29 11:15:08;;;;;;;;;;;10.60;80.50;;;;;;5108774;28;19932;-60
2023/12/29 11:17:49;;;;;;;;;;;10.60;80.70;;;;;;5107142;28;19936;-61
2023/12/29 11:20:21;;;;;;;;;;;10.60;81.00;;;;;;5108452;28;20016;-60
2023/12/29 11:22:55;;;;;;;;;;;10.60;81.30;;;;;;5107037;28;19938;-60
2023/12/29 11:25:29;;;;;;;;;;;10.60;81.70;;;;;;5108816;27;19927;-59
2023/12/29 11:28:03;;;;;;;;;;;10.60;82.00;;;;;;5106946;28;19928;-61
2023/12/29 11:30:35;;;;;;;;;;;10.60;82.20;;;;;;5108075;28;19928;-59
2023/12/29 11:33:11;;;;;;;;;;;10.60;82.20;;;;;;5109089;28;20365;-60
2023/12/29 11:35:46;;;;;;;;;;;10.60;82.20;;;;;;5107656;28;19928;-60
2023/12/29 11:38:36;;;;;;;;;;;10.60;82.10;;;;;;5108941;28;20226;-59
2023/12/29 11:41:22;;;;;;;;;;;10.60;82.00;;;;;;5110026;28;19970;-60
2023/12/29 11:43:59;;;;;;;;;;;10.60;82.00;;;;;;5107098;28;19947;-56
2023/12/29 11:46:35;;;;;;;;;;;10.60;81.90;;;;;;5094559;28;19928;-60
2023/12/29 11:49:08;;;;;;;;;;;10.60;81.80;;;;;;5107812;28;19927;-60
2023/12/29 11:51:43;;;;;;;;;;;10.60;81.50;;;;;;5108412;28;20042;-59
2023/12/29 11:54:22;;;;;;;;;;;10.60;81.50;;;;;;5107594;28;20374;-59
2023/12/29 11:56:57;;;;;;;;;;;10.60;81.40;;;;;;5108010;27;20025;-60
2023/12/29 11:59:31;;;;;;;;;;;10.60;81.20;;;;;;5106746;28;19951;-59
2023/12/29 12:02:06;;;;;;;;;;;10.70;81.30;;;;;;5107999;28;19924;-60
2023/12/29 12:04:41;;;;;;;;;;;10.70;81.20;;;;;;5108943;28;19924;-60
2023/12/29 12:07:16;;;;;;;;;;;10.70;81.10;;;;;;5102882;28;20015;-61
2023/12/29 12:09:50;;;;;;;;;;;10.70;81.00;;;;;;5105747;27;20384;-58
2023/12/29 12:12:40;;;;;;;;;;;10.80;80.90;;;;;;5108036;28;19934;-60
2023/12/29 12:15:32;;;;;;;;;;;10.80;80.80;;;;;;5092880;27;19979;-61
2023/12/29 12:18:07;;;;;;;;;;;10.80;80.60;;;;;;5107015;28;20024;-62
2023/12/29 12:20:40;;;;;;;;;;;10.80;80.40;;;;;;5106265;28;20023;-61
2023/12/29 12:23:17;;;;;;;;;;;10.80;80.30;;;;;;5106485;28;19924;-62
2023/12/29 12:25:52;;;;;;;;;;;10.90;79.90;;;;;;5106300;28;19967;-62
2023/12/29 12:28:27;;;;;;;;;;;10.90;79.70;;;;;;5108418;28;19931;-61
2023/12/29 12:31:08;;;;;;;;;;;10.90;79.80;;;;;;5106975;28;19932;-61
2023/12/29 12:33:41;;;;;;;;;;;10.80;79.90;;;;;;5108010;28;19928;-60
2023/12/29 12:36:15;;;;;;;;;;;10.90;80.10;;;;;;5088640;28;19947;-61
2023/12/29 12:38:51;;;;;;;;;;;10.90;80.10;;;;;;5088269;28;20391;-61
2023/12/29 14:50:35;;;;;;;;;;;10.80;79.70;;;;;;5107814;27;19935;-62
2023/12/29 14:53:08;;;;;;;;;;;10.80;79.80;;;;;;5110317;28;19943;-63
2023/12/29 14:55:41;;;;;;;;;;;10.80;79.80;;;;;;5102919;28;19977;-64
2023/12/29 14:58:14;;;;;;;;;;;10.80;79.80;;;;;;5109798;28;19931;-63
2023/12/29 15:00:47;;;;;;;;;;;10.80;79.90;;;;;;5109354;28;20278;-63
2023/12/29 15:03:27;;;;;;;;;;;10.80;79.80;;;;;;5109579;28;20023;-63
2023/12/29 15:06:02;;;;;;;;;;;10.80;79.80;;;;;;5108726;28;19928;-64
2023/12/29 15:08:37;;;;;;;;;;;10.80;79.80;;;;;;5108904;28;20374;-64
2023/12/29 15:11:10;;;;;;;;;;;10.80;79.90;;;;;;5104641;28;19924;-62
2023/12/29 15:13:43;;;;;;;;;;;10.80;80.00;;;;;;5110026;27;19928;-62
2023/12/29 15:16:16;;;;;;;;;;;10.80;79.90;;;;;;5090481;28;19928;-63
2023/12/29 15:18:50;;;;;;;;;;;10.80;80.10;;;;;;5090137;28;19935;-63
2023/12/29 15:21:24;;;;;;;;;;;10.80;80.20;;;;;;5089336;28;20021;-62
2023/12/29 15:23:58;;;;;;;;;;;10.70;80.40;;;;;;5088927;28;19971;-63
2023/12/29 15:26:31;;;;;;;;;;;10.70;80.60;;;;;;5108661;27;20462;-63
2023/12/29 15:29:04;;;;;;;;;;;10.70;80.80;;;;;;5100553;27;19932;-65
2023/12/29 15:31:37;;;;;;;;;;;10.70;80.80;;;;;;5087478;28;19935;-63
2023/12/29 15:34:10;;;;;;;;;;;10.70;81.00;;;;;;5087400;28;19928;-62
2023/12/29 15:36:44;;;;;;;;;;;10.70;81.10;;;;;;5088621;28;19924;-63
2023/12/29 15:39:18;;;;;;;;;;;10.70;81.20;;;;;;5087690;28;19977;-62
2023/12/29 15:41:51;;;;;;;;;;;10.70;81.10;;;;;;5087373;28;19977;-61
2023/12/29 15:44:24;;;;;;;;;;;10.70;81.20;;;;;;5088275;28;19928;-62
2023/12/29 15:46:58;;;;;;;;;;;10.70;81.20;;;;;;5089132;28;19924;-62
2023/12/29 15:49:31;;;;;;;;;;;10.70;81.20;;;;;;5088576;28;19924;-64
2023/12/29 15:52:05;;;;;;;;;;;10.70;81.10;;;;;;5088367;28;19924;-62
2023/12/29 15:54:39;;;;;;;;;;;10.60;81.20;;;;;;5088368;28;19934;-62
2023/12/29 15:57:13;;;;;;;;;;;10.60;81.20;;;;;;5083134;28;20360;-63
2023/12/29 15:59:46;;;;;;;;;;;10.70;81.00;;;;;;5088659;28;20027;-61
2023/12/29 16:02:19;;;;;;;;;;;10.60;80.90;;;;;;5089222;28;19932;-64
2023/12/29 16:04:52;;;;;;;;;;;10.60;80.90;;;;;;5087252;28;19924;-62
2023/12/29 16:07:26;;;;;;;;;;;10.60;80.90;;;;;;5109994;27;19923;-63
2023/12/29 16:10:00;;;;;;;;;;;10.60;80.80;;;;;;5106610;28;19924;-61
2023/12/29 16:12:33;;;;;;;;;;;10.60;80.70;;;;;;5108266;28;19959;-63
2023/12/29 16:15:07;;;;;;;;;;;10.60;80.70;;;;;;5107475;28;19924;-61
2023/12/29 16:17:42;;;;;;;;;;;10.60;80.70;;;;;;5108638;27;20409;-62
2023/12/29 16:20:16;;;;;;;;;;;10.60;80.80;;;;;;5106036;28;20146;-61
2023/12/29 16:22:50;;;;;;;;;;;10.60;80.60;;;;;;5105366;28;19963;-62
2023/12/29 16:25:24;;;;;;;;;;;10.60;80.60;;;;;;5106933;28;19935;-62
2023/12/29 16:27:57;;;;;;;;;;;10.60;80.60;;;;;;5107441;28;19951;-62
2023/12/29 16:30:30;;;;;;;;;;;10.60;80.50;;;;;;5106896;28;20405;-63
2023/12/29 16:33:05;;;;;;;;;;;10.60;80.50;;;;;;5106064;28;19927;-63
2023/12/29 16:35:38;;;;;;;;;;;10.60;80.50;;;;;;5107520;27;19938;-63
2023/12/29 16:38:12;;;;;;;;;;;10.60;80.40;;;;;;5113727;27;19927;-63
2023/12/29 16:40:39;;;;;;;;;;;10.60;80.40;;;;;;5112390;27;19928;-61
2023/12/29 16:43:12;;;;;;;;;;;10.60;80.40;;;;;;5113617;27;20015;-63
2023/12/29 16:45:45;;;;;;;;;;;10.60;80.30;;;;;;5102339;27;19928;-63
2023/12/29 16:48:18;;;;;;;;;;;10.60;80.10;;;;;;5096600;27;19927;-64
2023/12/29 16:50:51;;;;;;;;;;;10.60;80.10;;;;;;5093292;28;20299;-62
2023/12/29 16:53:25;;;;;;;;;;;10.60;80.10;;;;;;5112761;27;20290;-68
2023/12/29 16:55:59;;;;;;;;;;;10.60;80.10;;;;;;5111756;28;20007;-69
2023/12/29 16:58:32;;;;;;;;;;;10.60;80.10;;;;;;5104038;27;20401;-67
2023/12/29 17:01:05;;;;;;;;;;;10.60;80.00;;;;;;5096703;27;19994;-67
2023/12/29 17:03:38;;;;;;;;;;;10.60;80.10;;;;;;5095666;27;19939;-68
2023/12/29 17:06:11;;;;;;;;;;;10.60;80.10;;;;;;5096727;27;19930;-68
2023/12/29 17:08:45;;;;;;;;;;;10.50;80.00;;;;;;5113044;27;19928;-68
2023/12/29 17:11:19;;;;;;;;;;;10.60;80.00;;;;;;5102411;27;19924;-68
2023/12/29 17:13:52;;;;;;;;;;;10.60;80.00;;;;;;5110314;27;20013;-66